sensor_id;sensor_type;location;lat;lon;timestamp;P1;durP1;ratioP1;P2;durP2;ratioP2
7377;SDS011;3730;50.856;12.776;2022-08-03T00:02:23;5.20;;;2.10;;
7377;SDS011;3730;50.856;12.776;2022-08-03T00:04:49;1.80;;;1.70;;
7377;SDS011;3730;50.856;12.776;2022-08-03T00:07:15;3.70;;;2.20;;
7377;SDS011;3730;50.856;12.776;2022-08-03T00:09:41;3.53;;;2.30;;
7377;SDS011;3730;50.856;12.776;2022-08-03T00:12:07;4.03;;;2.23;;
7377;SDS011;3730;50.856;12.776;2022-08-03T00:14:33;2.00;;;1.90;;
7377;SDS011;3730;50.856;12.776;2022-08-03T00:17:00;3.03;;;2.07;;
7377;SDS011;3730;50.856;12.776;2022-08-03T00:19:26;2.23;;;2.03;;
7377;SDS011;3730;50.856;12.776;2022-08-03T00:21:52;3.50;;;1.97;;
7377;SDS011;3730;50.856;12.776;2022-08-03T00:24:18;4.53;;;1.97;;
7377;SDS011;3730;50.856;12.776;2022-08-03T00:26:44;5.33;;;2.40;;
7377;SDS011;3730;50.856;12.776;2022-08-03T00:29:10;3.10;;;2.37;;
7377;SDS011;3730;50.856;12.776;2022-08-03T00:31:36;2.10;;;1.90;;
7377;SDS011;3730;50.856;12.776;2022-08-03T00:34:02;3.53;;;2.30;;
7377;SDS011;3730;50.856;12.776;2022-08-03T00:36:28;4.00;;;2.30;;
7377;SDS011;3730;50.856;12.776;2022-08-03T00:38:54;2.37;;;2.17;;
7377;SDS011;3730;50.856;12.776;2022-08-03T00:41:20;2.90;;;2.03;;
7377;SDS011;3730;50.856;12.776;2022-08-03T00:43:47;3.23;;;2.00;;
7377;SDS011;3730;50.856;12.776;2022-08-03T00:46:13;3.10;;;2.07;;
7377;SDS011;3730;50.856;12.776;2022-08-03T00:48:39;3.43;;;2.30;;
7377;SDS011;3730;50.856;12.776;2022-08-03T00:51:05;3.87;;;1.93;;
7377;SDS011;3730;50.856;12.776;2022-08-03T00:53:32;2.23;;;2.03;;
7377;SDS011;3730;50.856;12.776;2022-08-03T00:55:59;2.03;;;1.90;;
7377;SDS011;3730;50.856;12.776;2022-08-03T00:58:25;2.70;;;1.90;;
7377;SDS011;3730;50.856;12.776;2022-08-03T01:00:51;3.70;;;2.03;;
7377;SDS011;3730;50.856;12.776;2022-08-03T01:03:17;2.40;;;1.80;;
7377;SDS011;3730;50.856;12.776;2022-08-03T01:11:14;2.47;;;1.80;;
7377;SDS011;3730;50.856;12.776;2022-08-03T01:16:13;2.50;;;2.20;;
7377;SDS011;3730;50.856;12.776;2022-08-03T01:18:43;4.10;;;2.17;;
7377;SDS011;3730;50.856;12.776;2022-08-03T01:21:15;3.70;;;2.33;;
7377;SDS011;3730;50.856;12.776;2022-08-03T01:24:02;4.33;;;2.20;;
7377;SDS011;3730;50.856;12.776;2022-08-03T01:31:25;2.37;;;2.17;;
7377;SDS011;3730;50.856;12.776;2022-08-03T01:33:54;2.20;;;2.00;;
7377;SDS011;3730;50.856;12.776;2022-08-03T01:36:23;2.73;;;2.43;;
7377;SDS011;3730;50.856;12.776;2022-08-03T01:38:52;5.13;;;2.57;;
7377;SDS011;3730;50.856;12.776;2022-08-03T01:41:30;4.13;;;2.73;;
7377;SDS011;3730;50.856;12.776;2022-08-03T01:43:57;2.50;;;2.30;;
7377;SDS011;3730;50.856;12.776;2022-08-03T01:46:24;2.77;;;2.57;;
7377;SDS011;3730;50.856;12.776;2022-08-03T01:48:50;3.00;;;2.70;;
7377;SDS011;3730;50.856;12.776;2022-08-03T01:51:18;2.40;;;2.20;;
7377;SDS011;3730;50.856;12.776;2022-08-03T01:53:45;2.83;;;2.37;;
7377;SDS011;3730;50.856;12.776;2022-08-03T01:56:15;3.57;;;2.73;;
7377;SDS011;3730;50.856;12.776;2022-08-03T01:58:43;3.90;;;2.60;;
7377;SDS011;3730;50.856;12.776;2022-08-03T02:01:10;2.50;;;2.40;;
7377;SDS011;3730;50.856;12.776;2022-08-03T02:03:38;2.40;;;2.20;;
7377;SDS011;3730;50.856;12.776;2022-08-03T02:06:06;2.53;;;2.30;;
7377;SDS011;3730;50.856;12.776;2022-08-03T02:08:34;2.60;;;2.40;;
7377;SDS011;3730;50.856;12.776;2022-08-03T02:11:00;2.10;;;2.00;;
7377;SDS011;3730;50.856;12.776;2022-08-03T02:13:27;5.23;;;2.30;;
7377;SDS011;3730;50.856;12.776;2022-08-03T02:15:53;5.93;;;2.90;;
7377;SDS011;3730;50.856;12.776;2022-08-03T02:18:20;2.90;;;2.57;;
7377;SDS011;3730;50.856;12.776;2022-08-03T02:20:47;4.43;;;2.60;;
7377;SDS011;3730;50.856;12.776;2022-08-03T02:23:14;3.50;;;2.57;;
7377;SDS011;3730;50.856;12.776;2022-08-03T02:25:42;5.07;;;2.50;;
7377;SDS011;3730;50.856;12.776;2022-08-03T02:28:10;6.07;;;3.03;;
7377;SDS011;3730;50.856;12.776;2022-08-03T02:30:37;4.63;;;2.50;;
7377;SDS011;3730;50.856;12.776;2022-08-03T02:33:04;2.70;;;2.50;;
7377;SDS011;3730;50.856;12.776;2022-08-03T02:35:30;5.87;;;2.47;;
7377;SDS011;3730;50.856;12.776;2022-08-03T02:38:02;3.27;;;2.90;;
7377;SDS011;3730;50.856;12.776;2022-08-03T02:40:29;2.80;;;2.60;;
7377;SDS011;3730;50.856;12.776;2022-08-03T02:42:57;3.50;;;2.30;;
7377;SDS011;3730;50.856;12.776;2022-08-03T02:45:24;2.80;;;2.57;;
7377;SDS011;3730;50.856;12.776;2022-08-03T02:47:51;3.57;;;2.20;;
7377;SDS011;3730;50.856;12.776;2022-08-03T02:50:18;2.63;;;2.27;;
7377;SDS011;3730;50.856;12.776;2022-08-03T02:52:47;3.30;;;2.50;;
7377;SDS011;3730;50.856;12.776;2022-08-03T02:55:13;2.83;;;2.60;;
7377;SDS011;3730;50.856;12.776;2022-08-03T02:57:41;2.70;;;2.50;;
7377;SDS011;3730;50.856;12.776;2022-08-03T03:00:08;3.87;;;2.50;;
7377;SDS011;3730;50.856;12.776;2022-08-03T03:02:35;3.47;;;2.67;;
7377;SDS011;3730;50.856;12.776;2022-08-03T03:05:01;4.03;;;2.63;;
7377;SDS011;3730;50.856;12.776;2022-08-03T03:07:27;3.27;;;2.80;;
7377;SDS011;3730;50.856;12.776;2022-08-03T03:09:54;3.90;;;2.63;;
7377;SDS011;3730;50.856;12.776;2022-08-03T03:12:20;5.27;;;2.90;;
7377;SDS011;3730;50.856;12.776;2022-08-03T03:14:47;2.93;;;2.60;;
7377;SDS011;3730;50.856;12.776;2022-08-03T03:17:13;3.33;;;2.90;;
7377;SDS011;3730;50.856;12.776;2022-08-03T03:19:40;4.03;;;2.90;;
7377;SDS011;3730;50.856;12.776;2022-08-03T03:22:08;2.93;;;2.73;;
7377;SDS011;3730;50.856;12.776;2022-08-03T03:24:34;3.17;;;2.87;;
7377;SDS011;3730;50.856;12.776;2022-08-03T03:27:00;3.73;;;2.93;;
7377;SDS011;3730;50.856;12.776;2022-08-03T03:29:26;4.40;;;3.10;;
7377;SDS011;3730;50.856;12.776;2022-08-03T03:31:53;3.47;;;2.90;;
7377;SDS011;3730;50.856;12.776;2022-08-03T03:34:21;3.40;;;3.10;;
7377;SDS011;3730;50.856;12.776;2022-08-03T03:36:47;3.13;;;2.90;;
7377;SDS011;3730;50.856;12.776;2022-08-03T03:39:13;3.40;;;2.80;;
7377;SDS011;3730;50.856;12.776;2022-08-03T03:41:39;6.87;;;3.50;;
7377;SDS011;3730;50.856;12.776;2022-08-03T03:44:05;4.03;;;3.07;;
7377;SDS011;3730;50.856;12.776;2022-08-03T03:46:31;4.60;;;3.03;;
7377;SDS011;3730;50.856;12.776;2022-08-03T03:48:57;3.60;;;2.87;;
7377;SDS011;3730;50.856;12.776;2022-08-03T03:51:23;5.00;;;2.93;;
7377;SDS011;3730;50.856;12.776;2022-08-03T03:53:53;6.17;;;3.27;;
7377;SDS011;3730;50.856;12.776;2022-08-03T03:56:20;3.03;;;2.73;;
7377;SDS011;3730;50.856;12.776;2022-08-03T03:58:46;2.77;;;2.57;;
7377;SDS011;3730;50.856;12.776;2022-08-03T04:01:12;5.30;;;2.80;;
7377;SDS011;3730;50.856;12.776;2022-08-03T04:03:38;4.43;;;2.83;;
7377;SDS011;3730;50.856;12.776;2022-08-03T04:06:04;8.40;;;2.70;;
7377;SDS011;3730;50.856;12.776;2022-08-03T04:08:48;13.20;;;3.07;;
7377;SDS011;3730;50.856;12.776;2022-08-03T04:11:25;3.20;;;2.70;;
7377;SDS011;3730;50.856;12.776;2022-08-03T04:13:53;4.20;;;3.03;;
7377;SDS011;3730;50.856;12.776;2022-08-03T04:16:21;3.47;;;3.17;;
7377;SDS011;3730;50.856;12.776;2022-08-03T04:18:50;4.67;;;3.43;;
7377;SDS011;3730;50.856;12.776;2022-08-03T04:21:18;3.50;;;3.00;;
7377;SDS011;3730;50.856;12.776;2022-08-03T04:23:45;9.10;;;3.50;;
7377;SDS011;3730;50.856;12.776;2022-08-03T04:26:14;5.97;;;3.67;;
7377;SDS011;3730;50.856;12.776;2022-08-03T04:28:41;6.20;;;3.87;;
7377;SDS011;3730;50.856;12.776;2022-08-03T04:31:10;4.67;;;3.23;;
7377;SDS011;3730;50.856;12.776;2022-08-03T04:33:36;6.00;;;3.30;;
7377;SDS011;3730;50.856;12.776;2022-08-03T04:36:04;4.53;;;3.20;;
7377;SDS011;3730;50.856;12.776;2022-08-03T04:38:33;4.83;;;3.60;;
7377;SDS011;3730;50.856;12.776;2022-08-03T04:41:01;6.57;;;3.90;;
7377;SDS011;3730;50.856;12.776;2022-08-03T04:43:27;8.03;;;3.60;;
7377;SDS011;3730;50.856;12.776;2022-08-03T04:45:54;12.33;;;3.60;;
7377;SDS011;3730;50.856;12.776;2022-08-03T04:48:20;6.50;;;3.60;;
7377;SDS011;3730;50.856;12.776;2022-08-03T04:50:47;22.57;;;4.67;;
7377;SDS011;3730;50.856;12.776;2022-08-03T04:53:13;21.67;;;3.73;;
7377;SDS011;3730;50.856;12.776;2022-08-03T04:55:39;8.60;;;3.13;;
7377;SDS011;3730;50.856;12.776;2022-08-03T04:58:05;4.67;;;4.07;;
7377;SDS011;3730;50.856;12.776;2022-08-03T05:00:31;3.20;;;3.00;;
7377;SDS011;3730;50.856;12.776;2022-08-03T05:02:57;3.50;;;3.20;;
7377;SDS011;3730;50.856;12.776;2022-08-03T05:05:23;7.90;;;3.10;;
7377;SDS011;3730;50.856;12.776;2022-08-03T05:07:49;4.23;;;3.20;;
7377;SDS011;3730;50.856;12.776;2022-08-03T05:10:16;4.50;;;3.10;;
7377;SDS011;3730;50.856;12.776;2022-08-03T05:12:42;3.53;;;3.03;;
7377;SDS011;3730;50.856;12.776;2022-08-03T05:15:08;3.67;;;3.20;;
7377;SDS011;3730;50.856;12.776;2022-08-03T05:17:35;3.70;;;3.10;;
7377;SDS011;3730;50.856;12.776;2022-08-03T05:20:01;4.87;;;3.20;;
7377;SDS011;3730;50.856;12.776;2022-08-03T05:22:28;5.53;;;3.50;;
7377;SDS011;3730;50.856;12.776;2022-08-03T05:24:54;3.30;;;3.00;;
7377;SDS011;3730;50.856;12.776;2022-08-03T05:27:20;4.87;;;2.97;;
7377;SDS011;3730;50.856;12.776;2022-08-03T05:29:49;4.47;;;3.20;;
7377;SDS011;3730;50.856;12.776;2022-08-03T05:32:16;3.93;;;2.63;;
7377;SDS011;3730;50.856;12.776;2022-08-03T05:34:42;3.23;;;2.77;;
7377;SDS011;3730;50.856;12.776;2022-08-03T05:37:08;3.03;;;2.83;;
7377;SDS011;3730;50.856;12.776;2022-08-03T05:39:35;6.13;;;2.97;;
7377;SDS011;3730;50.856;12.776;2022-08-03T05:42:02;3.00;;;2.80;;
7377;SDS011;3730;50.856;12.776;2022-08-03T05:44:28;4.03;;;2.87;;
7377;SDS011;3730;50.856;12.776;2022-08-03T05:46:55;2.53;;;2.20;;
7377;SDS011;3730;50.856;12.776;2022-08-03T05:49:21;2.80;;;2.40;;
7377;SDS011;3730;50.856;12.776;2022-08-03T05:51:47;2.60;;;2.20;;
7377;SDS011;3730;50.856;12.776;2022-08-03T05:54:13;2.80;;;2.60;;
7377;SDS011;3730;50.856;12.776;2022-08-03T05:56:39;2.33;;;2.23;;
7377;SDS011;3730;50.856;12.776;2022-08-03T05:59:05;3.00;;;2.20;;
7377;SDS011;3730;50.856;12.776;2022-08-03T06:01:31;2.10;;;2.00;;
7377;SDS011;3730;50.856;12.776;2022-08-03T06:03:57;3.07;;;2.53;;
7377;SDS011;3730;50.856;12.776;2022-08-03T06:06:23;2.70;;;2.50;;
7377;SDS011;3730;50.856;12.776;2022-08-03T06:08:49;2.73;;;2.40;;
7377;SDS011;3730;50.856;12.776;2022-08-03T06:11:14;2.10;;;2.00;;
7377;SDS011;3730;50.856;12.776;2022-08-03T06:13:40;4.43;;;2.60;;
7377;SDS011;3730;50.856;12.776;2022-08-03T06:16:07;2.30;;;2.10;;
7377;SDS011;3730;50.856;12.776;2022-08-03T06:18:33;2.37;;;2.10;;
7377;SDS011;3730;50.856;12.776;2022-08-03T06:20:59;3.30;;;2.40;;
7377;SDS011;3730;50.856;12.776;2022-08-03T06:23:25;2.43;;;2.20;;
7377;SDS011;3730;50.856;12.776;2022-08-03T06:25:51;6.30;;;2.40;;
7377;SDS011;3730;50.856;12.776;2022-08-03T06:28:17;5.40;;;2.70;;
7377;SDS011;3730;50.856;12.776;2022-08-03T06:30:43;2.43;;;2.20;;
7377;SDS011;3730;50.856;12.776;2022-08-03T06:33:09;2.37;;;2.00;;
7377;SDS011;3730;50.856;12.776;2022-08-03T06:35:35;2.50;;;1.83;;
7377;SDS011;3730;50.856;12.776;2022-08-03T06:38:01;3.80;;;2.23;;
7377;SDS011;3730;50.856;12.776;2022-08-03T06:40:27;3.27;;;2.23;;
7377;SDS011;3730;50.856;12.776;2022-08-03T06:42:58;2.10;;;1.90;;
7377;SDS011;3730;50.856;12.776;2022-08-03T06:45:24;4.30;;;2.20;;
7377;SDS011;3730;50.856;12.776;2022-08-03T06:48:01;2.13;;;2.00;;
7377;SDS011;3730;50.856;12.776;2022-08-03T06:50:27;2.67;;;1.83;;
7377;SDS011;3730;50.856;12.776;2022-08-03T06:52:53;2.40;;;2.17;;
7377;SDS011;3730;50.856;12.776;2022-08-03T06:55:19;2.30;;;2.10;;
7377;SDS011;3730;50.856;12.776;2022-08-03T06:57:45;2.87;;;1.90;;
7377;SDS011;3730;50.856;12.776;2022-08-03T07:00:12;2.50;;;1.97;;
7377;SDS011;3730;50.856;12.776;2022-08-03T07:02:38;4.10;;;1.77;;
7377;SDS011;3730;50.856;12.776;2022-08-03T07:05:05;2.00;;;1.90;;
7377;SDS011;3730;50.856;12.776;2022-08-03T07:07:31;5.30;;;2.20;;
7377;SDS011;3730;50.856;12.776;2022-08-03T07:09:57;1.73;;;1.63;;
7377;SDS011;3730;50.856;12.776;2022-08-03T07:12:23;2.30;;;1.60;;
7377;SDS011;3730;50.856;12.776;2022-08-03T07:14:50;1.77;;;1.50;;
7377;SDS011;3730;50.856;12.776;2022-08-03T07:17:16;1.83;;;1.63;;
7377;SDS011;3730;50.856;12.776;2022-08-03T07:19:42;1.70;;;1.60;;
7377;SDS011;3730;50.856;12.776;2022-08-03T07:22:08;5.97;;;1.70;;
7377;SDS011;3730;50.856;12.776;2022-08-03T07:24:35;2.70;;;1.80;;
7377;SDS011;3730;50.856;12.776;2022-08-03T07:27:01;1.70;;;1.60;;
7377;SDS011;3730;50.856;12.776;2022-08-03T07:29:27;1.90;;;1.80;;
7377;SDS011;3730;50.856;12.776;2022-08-03T07:31:53;1.60;;;1.50;;
7377;SDS011;3730;50.856;12.776;2022-08-03T07:34:19;3.17;;;1.50;;
7377;SDS011;3730;50.856;12.776;2022-08-03T07:36:45;2.10;;;1.90;;
7377;SDS011;3730;50.856;12.776;2022-08-03T07:39:11;1.90;;;1.80;;
7377;SDS011;3730;50.856;12.776;2022-08-03T07:41:38;1.73;;;1.60;;
7377;SDS011;3730;50.856;12.776;2022-08-03T07:44:04;1.60;;;1.50;;
7377;SDS011;3730;50.856;12.776;2022-08-03T07:46:30;1.70;;;1.60;;
7377;SDS011;3730;50.856;12.776;2022-08-03T07:48:56;1.87;;;1.77;;
7377;SDS011;3730;50.856;12.776;2022-08-03T07:51:22;1.67;;;1.57;;
7377;SDS011;3730;50.856;12.776;2022-08-03T07:53:48;1.70;;;1.50;;
7377;SDS011;3730;50.856;12.776;2022-08-03T07:56:14;2.20;;;1.60;;
7377;SDS011;3730;50.856;12.776;2022-08-03T07:58:41;1.60;;;1.50;;
7377;SDS011;3730;50.856;12.776;2022-08-03T08:01:07;1.90;;;1.80;;
7377;SDS011;3730;50.856;12.776;2022-08-03T08:03:33;1.83;;;1.63;;
7377;SDS011;3730;50.856;12.776;2022-08-03T08:05:59;2.37;;;1.50;;
7377;SDS011;3730;50.856;12.776;2022-08-03T08:08:25;1.80;;;1.70;;
7377;SDS011;3730;50.856;12.776;2022-08-03T08:10:52;3.03;;;1.73;;
7377;SDS011;3730;50.856;12.776;2022-08-03T08:13:18;1.80;;;1.70;;
7377;SDS011;3730;50.856;12.776;2022-08-03T08:15:44;2.40;;;2.20;;
7377;SDS011;3730;50.856;12.776;2022-08-03T08:18:10;4.47;;;2.23;;
7377;SDS011;3730;50.856;12.776;2022-08-03T08:20:36;1.73;;;1.63;;
7377;SDS011;3730;50.856;12.776;2022-08-03T08:23:04;4.03;;;1.87;;
7377;SDS011;3730;50.856;12.776;2022-08-03T08:25:30;3.07;;;1.90;;
7377;SDS011;3730;50.856;12.776;2022-08-03T08:27:57;2.07;;;1.90;;
7377;SDS011;3730;50.856;12.776;2022-08-03T08:30:26;2.37;;;1.87;;
7377;SDS011;3730;50.856;12.776;2022-08-03T08:32:52;2.00;;;1.90;;
7377;SDS011;3730;50.856;12.776;2022-08-03T08:35:18;2.87;;;1.80;;
7377;SDS011;3730;50.856;12.776;2022-08-03T08:37:44;2.33;;;1.80;;
7377;SDS011;3730;50.856;12.776;2022-08-03T08:40:11;2.20;;;1.27;;
7377;SDS011;3730;50.856;12.776;2022-08-03T08:42:40;4.00;;;1.80;;
7377;SDS011;3730;50.856;12.776;2022-08-03T08:45:08;1.97;;;1.77;;
7377;SDS011;3730;50.856;12.776;2022-08-03T08:47:36;1.47;;;1.37;;
7377;SDS011;3730;50.856;12.776;2022-08-03T08:50:04;6.53;;;1.90;;
7377;SDS011;3730;50.856;12.776;2022-08-03T08:52:31;3.63;;;1.40;;
7377;SDS011;3730;50.856;12.776;2022-08-03T08:54:58;3.03;;;1.70;;
7377;SDS011;3730;50.856;12.776;2022-08-03T08:57:38;2.97;;;1.80;;
7377;SDS011;3730;50.856;12.776;2022-08-03T09:00:10;2.33;;;2.00;;
7377;SDS011;3730;50.856;12.776;2022-08-03T09:02:39;2.10;;;1.90;;
7377;SDS011;3730;50.856;12.776;2022-08-03T09:05:18;2.17;;;1.97;;
7377;SDS011;3730;50.856;12.776;2022-08-03T09:07:45;2.63;;;2.03;;
7377;SDS011;3730;50.856;12.776;2022-08-03T09:10:12;1.70;;;1.60;;
7377;SDS011;3730;50.856;12.776;2022-08-03T09:12:42;1.77;;;1.67;;
7377;SDS011;3730;50.856;12.776;2022-08-03T09:15:15;2.47;;;1.60;;
7377;SDS011;3730;50.856;12.776;2022-08-03T09:17:41;1.60;;;1.50;;
7377;SDS011;3730;50.856;12.776;2022-08-03T09:20:07;1.77;;;1.67;;
7377;SDS011;3730;50.856;12.776;2022-08-03T09:22:33;1.83;;;1.73;;
7377;SDS011;3730;50.856;12.776;2022-08-03T09:25:04;4.65;;;2.03;;
7377;SDS011;3730;50.856;12.776;2022-08-03T09:27:43;1.70;;;1.60;;
7377;SDS011;3730;50.856;12.776;2022-08-03T09:30:16;3.15;;;1.30;;
7377;SDS011;3730;50.856;12.776;2022-08-03T09:32:42;3.90;;;1.67;;
7377;SDS011;3730;50.856;12.776;2022-08-03T09:35:10;2.17;;;1.67;;
7377;SDS011;3730;50.856;12.776;2022-08-03T09:37:37;1.90;;;1.63;;
7377;SDS011;3730;50.856;12.776;2022-08-03T09:40:03;1.80;;;1.70;;
7377;SDS011;3730;50.856;12.776;2022-08-03T09:42:30;1.85;;;1.58;;
7377;SDS011;3730;50.856;12.776;2022-08-03T09:44:55;1.42;;;1.33;;
7377;SDS011;3730;50.856;12.776;2022-08-03T09:47:28;4.38;;;1.92;;
7377;SDS011;3730;50.856;12.776;2022-08-03T09:50:04;1.63;;;1.50;;
7377;SDS011;3730;50.856;12.776;2022-08-03T09:52:35;1.60;;;1.50;;
7377;SDS011;3730;50.856;12.776;2022-08-03T09:55:09;1.90;;;1.63;;
7377;SDS011;3730;50.856;12.776;2022-08-03T09:57:35;1.95;;;1.60;;
7377;SDS011;3730;50.856;12.776;2022-08-03T10:00:05;1.83;;;1.73;;
7377;SDS011;3730;50.856;12.776;2022-08-03T10:02:34;2.10;;;1.70;;
7377;SDS011;3730;50.856;12.776;2022-08-03T10:05:00;2.67;;;1.77;;
7377;SDS011;3730;50.856;12.776;2022-08-03T10:07:26;3.20;;;1.60;;
7377;SDS011;3730;50.856;12.776;2022-08-03T10:09:59;2.55;;;1.70;;
7377;SDS011;3730;50.856;12.776;2022-08-03T10:12:26;1.83;;;1.40;;
7377;SDS011;3730;50.856;12.776;2022-08-03T10:14:52;1.27;;;1.15;;
7377;SDS011;3730;50.856;12.776;2022-08-03T10:17:22;4.35;;;1.60;;
7377;SDS011;3730;50.856;12.776;2022-08-03T10:19:48;4.00;;;1.90;;
7377;SDS011;3730;50.856;12.776;2022-08-03T10:22:15;1.92;;;1.50;;
7377;SDS011;3730;50.856;12.776;2022-08-03T10:25:23;4.63;;;1.60;;
7377;SDS011;3730;50.856;12.776;2022-08-03T10:27:33;3.38;;;1.50;;
7377;SDS011;3730;50.856;12.776;2022-08-03T10:30:00;2.63;;;1.90;;
7377;SDS011;3730;50.856;12.776;2022-08-03T10:32:29;1.40;;;1.30;;
7377;SDS011;3730;50.856;12.776;2022-08-03T10:35:01;1.38;;;1.30;;
7377;SDS011;3730;50.856;12.776;2022-08-03T10:37:30;3.28;;;1.45;;
7377;SDS011;3730;50.856;12.776;2022-08-03T10:39:59;3.80;;;1.70;;
7377;SDS011;3730;50.856;12.776;2022-08-03T10:42:25;1.70;;;1.52;;
7377;SDS011;3730;50.856;12.776;2022-08-03T10:44:59;2.00;;;1.80;;
7377;SDS011;3730;50.856;12.776;2022-08-03T10:47:31;1.88;;;1.77;;
7377;SDS011;3730;50.856;12.776;2022-08-03T10:49:57;3.00;;;1.88;;
7377;SDS011;3730;50.856;12.776;2022-08-03T10:52:23;1.52;;;1.42;;
7377;SDS011;3730;50.856;12.776;2022-08-03T10:54:49;3.92;;;1.60;;
7377;SDS011;3730;50.856;12.776;2022-08-03T10:57:52;1.60;;;1.50;;
7377;SDS011;3730;50.856;12.776;2022-08-03T11:00:22;4.47;;;1.50;;
7377;SDS011;3730;50.856;12.776;2022-08-03T11:05:35;1.92;;;1.80;;
7377;SDS011;3730;50.856;12.776;2022-08-03T11:10:43;1.80;;;1.48;;
7377;SDS011;3730;50.856;12.776;2022-08-03T11:13:10;2.03;;;1.45;;
7377;SDS011;3730;50.856;12.776;2022-08-03T11:15:40;2.97;;;1.70;;
7377;SDS011;3730;50.856;12.776;2022-08-03T11:18:10;1.50;;;1.40;;
7377;SDS011;3730;50.856;12.776;2022-08-03T11:23:13;1.70;;;1.60;;
7377;SDS011;3730;50.856;12.776;2022-08-03T11:28:33;1.60;;;1.50;;
7377;SDS011;3730;50.856;12.776;2022-08-03T11:34:05;1.65;;;1.55;;
7377;SDS011;3730;50.856;12.776;2022-08-03T11:39:42;1.90;;;1.80;;
7377;SDS011;3730;50.856;12.776;2022-08-03T11:42:55;1.70;;;1.60;;
7377;SDS011;3730;50.856;12.776;2022-08-03T11:44:59;5.90;;;1.70;;
7377;SDS011;3730;50.856;12.776;2022-08-03T11:47:26;2.30;;;1.60;;
7377;SDS011;3730;50.856;12.776;2022-08-03T11:49:54;1.75;;;1.65;;
7377;SDS011;3730;50.856;12.776;2022-08-03T11:52:22;4.20;;;2.03;;
7377;SDS011;3730;50.856;12.776;2022-08-03T11:54:49;4.60;;;1.95;;
7377;SDS011;3730;50.856;12.776;2022-08-03T11:57:28;1.85;;;1.75;;
7377;SDS011;3730;50.856;12.776;2022-08-03T11:59:56;2.40;;;1.50;;
7377;SDS011;3730;50.856;12.776;2022-08-03T12:02:22;1.60;;;1.50;;
7377;SDS011;3730;50.856;12.776;2022-08-03T12:04:51;1.73;;;1.50;;
7377;SDS011;3730;50.856;12.776;2022-08-03T12:07:22;1.80;;;1.67;;
7377;SDS011;3730;50.856;12.776;2022-08-03T12:10:10;2.55;;;1.80;;
7377;SDS011;3730;50.856;12.776;2022-08-03T12:12:38;12.75;;;2.70;;
7377;SDS011;3730;50.856;12.776;2022-08-03T12:15:05;5.22;;;1.70;;
7377;SDS011;3730;50.856;12.776;2022-08-03T12:17:38;2.65;;;1.42;;
7377;SDS011;3730;50.856;12.776;2022-08-03T12:20:06;1.45;;;1.40;;
7377;SDS011;3730;50.856;12.776;2022-08-03T12:22:33;2.80;;;1.73;;
7377;SDS011;3730;50.856;12.776;2022-08-03T12:25:01;3.42;;;1.77;;
7377;SDS011;3730;50.856;12.776;2022-08-03T12:27:30;3.72;;;1.60;;
7377;SDS011;3730;50.856;12.776;2022-08-03T12:29:57;3.88;;;1.92;;
7377;SDS011;3730;50.856;12.776;2022-08-03T12:32:25;7.70;;;2.20;;
7377;SDS011;3730;50.856;12.776;2022-08-03T12:34:52;5.28;;;2.10;;
7377;SDS011;3730;50.856;12.776;2022-08-03T12:37:23;2.25;;;1.80;;
7377;SDS011;3730;50.856;12.776;2022-08-03T12:39:49;4.97;;;2.10;;
7377;SDS011;3730;50.856;12.776;2022-08-03T12:42:17;5.32;;;2.25;;
7377;SDS011;3730;50.856;12.776;2022-08-03T12:44:43;3.83;;;1.80;;
7377;SDS011;3730;50.856;12.776;2022-08-03T12:47:10;3.00;;;1.95;;
7377;SDS011;3730;50.856;12.776;2022-08-03T12:49:49;5.68;;;1.80;;
7377;SDS011;3730;50.856;12.776;2022-08-03T12:52:15;3.33;;;2.00;;
7377;SDS011;3730;50.856;12.776;2022-08-03T12:54:42;3.38;;;1.90;;
7377;SDS011;3730;50.856;12.776;2022-08-03T12:57:10;7.55;;;2.13;;
7377;SDS011;3730;50.856;12.776;2022-08-03T12:59:40;2.05;;;1.70;;
7377;SDS011;3730;50.856;12.776;2022-08-03T13:04:39;1.85;;;1.58;;
7377;SDS011;3730;50.856;12.776;2022-08-03T13:07:05;2.80;;;1.83;;
7377;SDS011;3730;50.856;12.776;2022-08-03T13:09:48;1.52;;;1.42;;
7377;SDS011;3730;50.856;12.776;2022-08-03T13:12:19;2.60;;;1.70;;
7377;SDS011;3730;50.856;12.776;2022-08-03T13:14:50;3.83;;;1.60;;
7377;SDS011;3730;50.856;12.776;2022-08-03T13:17:17;2.53;;;2.33;;
7377;SDS011;3730;50.856;12.776;2022-08-03T13:19:43;1.88;;;1.73;;
7377;SDS011;3730;50.856;12.776;2022-08-03T13:22:10;1.77;;;1.63;;
7377;SDS011;3730;50.856;12.776;2022-08-03T13:24:37;3.47;;;1.55;;
7377;SDS011;3730;50.856;12.776;2022-08-03T13:27:03;1.80;;;1.70;;
7377;SDS011;3730;50.856;12.776;2022-08-03T13:29:31;2.83;;;1.77;;
7377;SDS011;3730;50.856;12.776;2022-08-03T13:31:57;3.75;;;1.80;;
7377;SDS011;3730;50.856;12.776;2022-08-03T13:34:23;2.00;;;1.73;;
7377;SDS011;3730;50.856;12.776;2022-08-03T13:36:50;1.67;;;1.58;;
7377;SDS011;3730;50.856;12.776;2022-08-03T13:39:16;2.92;;;1.85;;
7377;SDS011;3730;50.856;12.776;2022-08-03T13:41:43;1.77;;;1.67;;
7377;SDS011;3730;50.856;12.776;2022-08-03T13:44:10;5.25;;;2.30;;
7377;SDS011;3730;50.856;12.776;2022-08-03T13:46:36;3.58;;;1.88;;
7377;SDS011;3730;50.856;12.776;2022-08-03T13:49:02;2.50;;;1.80;;
7377;SDS011;3730;50.856;12.776;2022-08-03T13:51:28;2.28;;;1.70;;
7377;SDS011;3730;50.856;12.776;2022-08-03T13:53:54;2.20;;;2.00;;
7377;SDS011;3730;50.856;12.776;2022-08-03T13:56:23;1.73;;;1.63;;
7377;SDS011;3730;50.856;12.776;2022-08-03T13:58:49;1.70;;;1.60;;
7377;SDS011;3730;50.856;12.776;2022-08-03T14:01:15;3.45;;;1.58;;
7377;SDS011;3730;50.856;12.776;2022-08-03T14:03:41;1.55;;;1.50;;
7377;SDS011;3730;50.856;12.776;2022-08-03T14:06:07;3.08;;;1.70;;
7377;SDS011;3730;50.856;12.776;2022-08-03T14:08:33;1.90;;;1.80;;
7377;SDS011;3730;50.856;12.776;2022-08-03T14:10:59;2.20;;;1.75;;
7377;SDS011;3730;50.856;12.776;2022-08-03T14:13:24;2.10;;;1.90;;
7377;SDS011;3730;50.856;12.776;2022-08-03T14:15:50;2.55;;;1.88;;
7377;SDS011;3730;50.856;12.776;2022-08-03T14:18:17;1.77;;;1.67;;
7377;SDS011;3730;50.856;12.776;2022-08-03T14:20:43;1.77;;;1.67;;
7377;SDS011;3730;50.856;12.776;2022-08-03T14:23:10;1.92;;;1.70;;
7377;SDS011;3730;50.856;12.776;2022-08-03T14:25:36;2.95;;;1.83;;
7377;SDS011;3730;50.856;12.776;2022-08-03T14:28:02;2.08;;;1.80;;
7377;SDS011;3730;50.856;12.776;2022-08-03T14:30:28;3.03;;;2.00;;
7377;SDS011;3730;50.856;12.776;2022-08-03T14:32:54;2.42;;;1.65;;
7377;SDS011;3730;50.856;12.776;2022-08-03T14:35:20;1.90;;;1.80;;
7377;SDS011;3730;50.856;12.776;2022-08-03T14:37:46;2.00;;;1.90;;
7377;SDS011;3730;50.856;12.776;2022-08-03T14:40:11;3.17;;;1.77;;
7377;SDS011;3730;50.856;12.776;2022-08-03T14:42:37;1.63;;;1.52;;
7377;SDS011;3730;50.856;12.776;2022-08-03T14:45:03;2.15;;;2.05;;
7377;SDS011;3730;50.856;12.776;2022-08-03T14:47:29;3.50;;;2.08;;
7377;SDS011;3730;50.856;12.776;2022-08-03T14:49:55;2.60;;;2.40;;
7377;SDS011;3730;50.856;12.776;2022-08-03T14:52:21;2.85;;;1.90;;
7377;SDS011;3730;50.856;12.776;2022-08-03T14:54:47;1.70;;;1.60;;
7377;SDS011;3730;50.856;12.776;2022-08-03T14:57:13;1.90;;;1.80;;
7377;SDS011;3730;50.856;12.776;2022-08-03T14:59:39;2.28;;;1.80;;
7377;SDS011;3730;50.856;12.776;2022-08-03T15:02:05;3.20;;;1.80;;
7377;SDS011;3730;50.856;12.776;2022-08-03T15:04:31;2.00;;;1.80;;
7377;SDS011;3730;50.856;12.776;2022-08-03T15:06:57;3.05;;;1.65;;
7377;SDS011;3730;50.856;12.776;2022-08-03T15:09:23;2.92;;;1.80;;
7377;SDS011;3730;50.856;12.776;2022-08-03T15:11:49;4.18;;;2.10;;
7377;SDS011;3730;50.856;12.776;2022-08-03T15:14:16;2.75;;;1.83;;
7377;SDS011;3730;50.856;12.776;2022-08-03T15:16:42;3.08;;;2.10;;
7377;SDS011;3730;50.856;12.776;2022-08-03T15:19:08;2.22;;;1.60;;
7377;SDS011;3730;50.856;12.776;2022-08-03T15:21:34;3.70;;;2.70;;
7377;SDS011;3730;50.856;12.776;2022-08-03T15:24:00;3.63;;;1.95;;
7377;SDS011;3730;50.856;12.776;2022-08-03T15:26:26;2.35;;;2.17;;
7377;SDS011;3730;50.856;12.776;2022-08-03T15:28:52;3.05;;;2.00;;
7377;SDS011;3730;50.856;12.776;2022-08-03T15:31:21;2.25;;;1.67;;
7377;SDS011;3730;50.856;12.776;2022-08-03T15:33:48;1.75;;;1.63;;
7377;SDS011;3730;50.856;12.776;2022-08-03T15:36:15;3.55;;;1.85;;